Main page
METAR-TAF:

METAR-TAF

Airports :

Linden Airport

Linden, New Jersey, United States

latitude: 40-37-03N, longitude: 074-14-40W, elevation: 23 ft

Current weather observation

The report was made 24 minutes ago, at 17:55 UTC
Wind 20 mph from the East/Southeast with gusts up to 31 mph
Temperature 48°F
Humidity 87%
Pressure 29.81 in. Hg
Visibility: 4 miles
Overcast at a height of 700 ft
light rain

METAR: KLDJ 251755Z AUTO 12017G27KT 4SM -RA OVC007 09/07 A2981 RMK AO2 P0009 60017 T00850073 10085 20046

Time: 13:19 (18:19 UTC)


TAF: missing

Weather observations and forecasts of more than 4000 airports (METAR and TAF reports).

The available stations are represented by yellow and red dots on the map.

Hover mouse over dot to see the name of the station.

Then click to see weather observations and forecasts.

To change the map : click on the green buttons with a black cross to zoom in, on the green button with a dash to zoom out, or on the green arrows for adjacent maps.


METAR-TAF: